LIRF/FCO METAR and TAF weather

Enter ICAO airport designator
Station Type Date Time Source
LIRF METAR 2022/12/05 13:50 UTC NOAA

LIRF 051350Z 16009KT 9999 SCT018 17/13 Q1019 NOSIG


Station Type Date Time Source
LIRF Decoded METAR 2022/12/05 13:50 UTC NOAA

Roma Fiumicino, Italy (LIRF) 41-48N 012-14E 3M
Dec 05, 2022 - 08:50 AM EST / 2022.12.05 1350 UTC
Wind: from the SSE (160 degrees) at 10 MPH (9 KT):0
Visibility: greater than 7 mile(s):0
Sky conditions: partly cloudy
Temperature: 62 F (17 C)
Dew Point: 55 F (13 C)
Relative Humidity: 77%
Pressure (altimeter): 30.09 in. Hg (1019 hPa)
ob: LIRF 051350Z 16009KT 9999 SCT018 17/13 Q1019 NOSIG
cycle: 14

Station Type Date Time Source
LIRF TAF 2022/12/05 12:23 UTC NOAA

TAF LIRF 051100Z 0512/0618 15012KT 9999 SCT020

Example: see airport list